Time,TemperatureF,DewpointF,PressureIn,WindDirection,WindDirectionDegrees,WindSpeedMPH,WindSpeedGustMPH,Humidity,HourlyPrecipIn,Conditions,Clouds,dailyrainin,SoftwareType,DateUTC
2013-01-08 00:11:00,26.0,20.0,30.21,East,87,0.0,3.0,78,0.00,,,0.00,weatherlink.com 1.10,2013-01-08 05:11:00,
2013-01-08 00:25:00,25.9,21.0,30.21,WSW,257,0.0,6.0,80,0.00,,,0.00,weatherlink.com 1.10,2013-01-08 05:25:00,
2013-01-08 00:40:00,26.7,21.0,30.21,ENE,61,5.0,7.0,78,0.00,,,0.00,weatherlink.com 1.10,2013-01-08 05:40:00,
2013-01-08 00:55:00,28.1,21.0,30.20,NE,35,2.0,8.0,75,0.00,,,0.00,weatherlink.com 1.10,2013-01-08 05:55:00,
2013-01-08 01:10:00,29.4,22.0,30.19,NNE,19,6.0,16.0,75,0.00,,,0.00,weatherlink.com 1.10,2013-01-08 06:10:00,
2013-01-08 01:25:00,29.7,22.0,30.19,North,9,5.0,15.0,73,0.00,,,0.00,weatherlink.com 1.10,2013-01-08 06:25:00,
2013-01-08 01:40:00,29.8,22.0,30.19,NE,45,1.0,16.0,73,0.00,,,0.00,weatherlink.com 1.10,2013-01-08 06:40:00,
2013-01-08 01:55:00,29.6,22.0,30.19,North,9,1.0,8.0,74,0.00,,,0.00,weatherlink.com 1.10,2013-01-08 06:55:00,
2013-01-08 02:10:00,29.9,22.0,30.20,NE,44,3.0,11.0,73,0.00,,,0.00,weatherlink.com 1.10,2013-01-08 07:10:00,
2013-01-08 02:25:00,30.1,23.0,30.20,NNE,32,4.0,13.0,74,0.00,,,0.00,weatherlink.com 1.10,2013-01-08 07:25:00,
2013-01-08 02:40:00,30.4,23.0,30.18,ENE,67,8.0,18.0,73,0.00,,,0.00,weatherlink.com 1.10,2013-01-08 07:40:00,
2013-01-08 02:55:00,30.5,23.0,30.18,NE,46,14.0,14.0,73,0.00,,,0.00,weatherlink.com 1.10,2013-01-08 07:55:00,
2013-01-08 03:11:00,30.4,22.0,30.16,NNE,30,7.0,18.0,72,0.00,,,0.00,weatherlink.com 1.10,2013-01-08 08:11:00,
2013-01-08 03:26:00,30.2,22.0,30.15,NE,34,5.0,13.0,72,0.00,,,0.00,weatherlink.com 1.10,2013-01-08 08:26:00,
2013-01-08 03:41:00,30.3,22.0,30.16,SSW,199,0.0,5.0,72,0.00,,,0.00,weatherlink.com 1.10,2013-01-08 08:41:00,
2013-01-08 03:56:00,30.3,22.0,30.16,WSW,245,0.0,10.0,72,0.00,,,0.00,weatherlink.com 1.10,2013-01-08 08:56:00,
2013-01-08 04:11:00,30.4,22.0,30.16,West,271,0.0,7.0,71,0.00,,,0.00,weatherlink.com 1.10,2013-01-08 09:11:00,
2013-01-08 04:26:00,30.5,22.0,30.17,SSW,213,2.0,4.0,71,0.00,,,0.00,weatherlink.com 1.10,2013-01-08 09:26:00,
2013-01-08 04:41:00,29.8,22.0,30.17,ESE,118,1.0,3.0,72,0.00,,,0.00,weatherlink.com 1.10,2013-01-08 09:41:00,
2013-01-08 04:56:00,29.7,22.0,30.17,South,178,0.0,8.0,72,0.00,,,0.00,weatherlink.com 1.10,2013-01-08 09:56:00,
2013-01-08 05:11:00,29.4,22.0,30.17,NW,318,1.0,7.0,73,0.00,,,0.00,weatherlink.com 1.10,2013-01-08 10:11:00,
2013-01-08 05:26:00,29.2,22.0,30.17,SE,130,0.0,4.0,73,0.00,,,0.00,weatherlink.com 1.10,2013-01-08 10:26:00,
2013-01-08 05:43:00,28.5,22.0,30.18,SW,227,0.0,6.0,75,0.00,,,0.00,weatherlink.com 1.10,2013-01-08 10:43:00,
2013-01-08 05:56:00,29.9,22.0,30.18,SSW,196,1.0,6.0,72,0.00,,,0.00,weatherlink.com 1.10,2013-01-08 10:56:00,
2013-01-08 06:11:00,29.9,22.0,30.18,South,179,3.0,4.0,71,0.00,,,0.00,weatherlink.com 1.10,2013-01-08 11:11:00,
2013-01-08 06:26:00,29.7,22.0,30.19,SSW,201,0.0,6.0,72,0.00,,,0.00,weatherlink.com 1.10,2013-01-08 11:26:00,
2013-01-08 06:41:00,28.7,21.0,30.18,South,188,0.0,1.0,73,0.00,,,0.00,weatherlink.com 1.10,2013-01-08 11:41:00,
2013-01-08 06:56:00,28.7,21.0,30.18,NE,40,0.0,3.0,73,0.00,,,0.00,weatherlink.com 1.10,2013-01-08 11:56:00,
2013-01-08 07:11:00,28.1,21.0,30.18,SSW,192,0.0,3.0,75,0.00,,,0.00,weatherlink.com 1.10,2013-01-08 12:11:00,
2013-01-08 07:26:00,27.1,21.0,30.19,South,188,1.0,2.0,77,0.00,,,0.00,weatherlink.com 1.10,2013-01-08 12:26:00,
2013-01-08 07:41:00,26.7,21.0,30.20,SE,135,0.0,4.0,78,0.00,,,0.00,weatherlink.com 1.10,2013-01-08 12:41:00,
2013-01-08 07:56:00,26.8,21.0,30.20,South,180,2.0,3.0,79,0.00,,,0.00,weatherlink.com 1.10,2013-01-08 12:56:00,
2013-01-08 08:13:00,26.9,21.0,30.20,SSW,192,0.0,4.0,78,0.00,,,0.00,weatherlink.com 1.10,2013-01-08 13:13:00,
2013-01-08 08:26:00,27.9,22.0,30.21,SSE,161,0.0,3.0,77,0.00,,,0.00,weatherlink.com 1.10,2013-01-08 13:26:00,
2013-01-08 08:41:00,29.8,23.0,30.20,SSW,200,0.0,3.0,75,0.00,,,0.00,weatherlink.com 1.10,2013-01-08 13:41:00,
2013-01-08 08:56:00,31.0,23.0,30.21,SSE,156,1.0,3.0,72,0.00,,,0.00,weatherlink.com 1.10,2013-01-08 13:56:00,
2013-01-08 09:11:00,33.4,24.0,30.22,South,181,0.0,1.0,69,0.00,,,0.00,weatherlink.com 1.10,2013-01-08 14:11:00,
2013-01-08 09:26:00,35.0,23.0,30.22,SW,226,0.0,3.0,63,0.00,,,0.00,weatherlink.com 1.10,2013-01-08 14:26:00,
2013-01-08 09:41:00,35.1,23.0,30.21,SE,138,0.0,5.0,61,0.00,,,0.00,weatherlink.com 1.10,2013-01-08 14:41:00,
2013-01-08 09:56:00,35.1,24.0,30.22,SW,219,0.0,3.0,63,0.00,,,0.00,weatherlink.com 1.10,2013-01-08 14:56:00,
2013-01-08 10:11:00,36.1,24.0,30.22,SSW,202,0.0,1.0,62,0.00,,,0.00,weatherlink.com 1.10,2013-01-08 15:11:00,
2013-01-08 10:26:00,37.5,25.0,30.22,SSW,194,0.0,2.0,60,0.00,,,0.00,weatherlink.com 1.10,2013-01-08 15:26:00,
2013-01-08 10:41:00,37.3,23.0,30.22,NE,42,0.0,6.0,57,0.00,,,0.00,weatherlink.com 1.10,2013-01-08 15:41:00,
2013-01-08 10:56:00,38.1,23.0,30.22,ENE,61,3.0,4.0,56,0.00,,,0.00,weatherlink.com 1.10,2013-01-08 15:56:00,
2013-01-08 11:11:00,36.2,23.0,30.21,North,5,0.0,8.0,58,0.01,,,0.01,weatherlink.com 1.10,2013-01-08 16:11:00,
2013-01-08 11:26:00,36.1,22.0,30.20,West,276,3.0,14.0,57,0.01,,,0.01,weatherlink.com 1.10,2013-01-08 16:26:00,
2013-01-08 11:41:00,36.2,23.0,30.21,ENE,64,7.0,9.0,59,0.01,,,0.01,weatherlink.com 1.10,2013-01-08 16:41:00,
2013-01-08 11:56:00,35.9,23.0,30.20,NNE,33,5.0,15.0,59,0.00,,,0.01,weatherlink.com 1.10,2013-01-08 16:56:00,
2013-01-08 12:11:00,36.1,22.0,30.20,ENE,65,5.0,18.0,58,0.00,,,0.01,weatherlink.com 1.10,2013-01-08 17:11:00,
2013-01-08 12:26:00,37.3,24.0,30.21,NNE,24,0.0,5.0,58,0.00,,,0.01,weatherlink.com 1.10,2013-01-08 17:26:00,
2013-01-08 12:41:00,38.9,25.0,30.20,SSW,202,2.0,7.0,57,0.00,,,0.01,weatherlink.com 1.10,2013-01-08 17:41:00,
2013-01-08 12:56:00,40.2,25.0,30.20,SE,144,1.0,3.0,54,0.00,,,0.01,weatherlink.com 1.10,2013-01-08 17:56:00,
2013-01-08 13:11:00,40.0,25.0,30.20,SW,230,2.0,4.0,56,0.00,,,0.01,weatherlink.com 1.10,2013-01-08 18:11:00,
2013-01-08 13:26:00,39.4,24.0,30.21,ENE,61,4.0,5.0,54,0.00,,,0.01,weatherlink.com 1.10,2013-01-08 18:26:00,
2013-01-08 13:41:00,38.0,23.0,30.21,NE,37,6.0,9.0,56,0.00,,,0.01,weatherlink.com 1.10,2013-01-08 18:41:00,
2013-01-08 13:56:00,37.8,24.0,30.22,NE,48,6.0,7.0,57,0.00,,,0.01,weatherlink.com 1.10,2013-01-08 18:56:00,
2013-01-08 14:10:00,38.3,24.0,30.23,ENE,57,3.0,5.0,56,0.00,,,0.01,weatherlink.com 1.10,2013-01-08 19:10:00,
2013-01-08 14:26:00,38.7,24.0,30.24,ENE,57,2.0,8.0,56,0.00,,,0.01,weatherlink.com 1.10,2013-01-08 19:26:00,
2013-01-08 14:41:00,38.1,24.0,30.25,ENE,61,2.0,11.0,57,0.00,,,0.01,weatherlink.com 1.10,2013-01-08 19:41:00,
2013-01-08 14:56:00,38.0,24.0,30.25,ENE,57,1.0,7.0,57,0.00,,,0.01,weatherlink.com 1.10,2013-01-08 19:56:00,
2013-01-08 15:11:00,38.4,24.0,30.26,ENE,73,1.0,3.0,57,0.01,,,0.02,weatherlink.com 1.10,2013-01-08 20:11:00,
2013-01-08 15:26:00,37.5,25.0,30.27,ENE,72,4.0,6.0,60,0.01,,,0.02,weatherlink.com 1.10,2013-01-08 20:26:00,
2013-01-08 15:57:00,35.3,24.0,30.27,ENE,59,1.0,5.0,63,0.02,,,0.03,weatherlink.com 1.10,2013-01-08 20:57:00,
2013-01-08 16:12:00,34.5,24.0,30.28,East,101,0.0,1.0,66,0.01,,,0.03,weatherlink.com 1.10,2013-01-08 21:12:00,
2013-01-08 16:27:00,33.3,24.0,30.28,NE,45,2.0,3.0,68,0.01,,,0.03,weatherlink.com 1.10,2013-01-08 21:27:00,
2013-01-08 16:42:00,32.5,24.0,30.28,ENE,59,0.0,4.0,71,0.00,,,0.03,weatherlink.com 1.10,2013-01-08 21:42:00,
2013-01-08 16:57:00,31.0,24.0,30.28,East,84,0.0,0.0,75,0.00,,,0.03,weatherlink.com 1.10,2013-01-08 21:57:00,
2013-01-08 17:12:00,29.7,23.0,30.29,East,84,0.0,1.0,77,0.00,,,0.03,weatherlink.com 1.10,2013-01-08 22:12:00,
2013-01-08 17:27:00,28.7,23.0,30.29,East,84,0.0,0.0,80,0.00,,,0.03,weatherlink.com 1.10,2013-01-08 22:27:00,
2013-01-08 17:42:00,28.8,23.0,30.29,East,84,1.0,2.0,80,0.00,,,0.03,weatherlink.com 1.10,2013-01-08 22:42:00,
2013-01-08 17:57:00,28.7,23.0,30.31,East,84,0.0,0.0,79,0.00,,,0.03,weatherlink.com 1.10,2013-01-08 22:57:00,
2013-01-08 18:12:00,28.0,23.0,30.30,East,84,0.0,0.0,82,0.00,,,0.03,weatherlink.com 1.10,2013-01-08 23:12:00,
2013-01-08 18:27:00,26.3,22.0,30.30,ENE,70,1.0,4.0,84,0.00,,,0.03,weatherlink.com 1.10,2013-01-08 23:27:00,
2013-01-08 18:57:00,26.5,22.0,30.31,ENE,61,2.0,3.0,84,0.00,,,0.03,weatherlink.com 1.10,2013-01-08 23:57:00,
2013-01-08 19:12:00,25.9,21.0,30.31,ENE,61,0.0,1.0,82,0.00,,,0.03,weatherlink.com 1.10,2013-01-09 00:12:00,
2013-01-08 19:27:00,25.5,21.0,30.32,East,91,0.0,1.0,82,0.00,,,0.03,weatherlink.com 1.10,2013-01-09 00:27:00,
2013-01-08 19:42:00,25.5,22.0,30.33,East,91,0.0,1.0,85,0.00,,,0.03,weatherlink.com 1.10,2013-01-09 00:42:00,
2013-01-08 19:56:00,24.9,21.0,30.33,East,91,2.0,2.0,84,0.00,,,0.03,weatherlink.com 1.10,2013-01-09 00:56:00,
2013-01-08 20:12:00,24.3,21.0,30.34,ENE,74,1.0,2.0,87,0.00,,,0.03,weatherlink.com 1.10,2013-01-09 01:12:00,
2013-01-08 20:27:00,24.6,21.0,30.34,ENE,59,1.0,3.0,86,0.00,,,0.03,weatherlink.com 1.10,2013-01-09 01:27:00,
2013-01-08 20:42:00,24.3,21.0,30.34,NE,49,2.0,3.0,86,0.00,,,0.03,weatherlink.com 1.10,2013-01-09 01:42:00,
2013-01-08 20:57:00,23.4,20.0,30.34,NE,54,0.0,2.0,87,0.00,,,0.03,weatherlink.com 1.10,2013-01-09 01:57:00,
2013-01-08 21:12:00,23.1,20.0,30.33,ENE,65,2.0,4.0,88,0.00,,,0.03,weatherlink.com 1.10,2013-01-09 02:12:00,
2013-01-08 21:27:00,23.6,21.0,30.34,ENE,64,0.0,2.0,88,0.00,,,0.03,weatherlink.com 1.10,2013-01-09 02:27:00,
2013-01-08 21:42:00,22.1,19.0,30.34,ENE,63,2.0,3.0,89,0.00,,,0.03,weatherlink.com 1.10,2013-01-09 02:42:00,
2013-01-08 21:57:00,22.0,20.0,30.34,ENE,57,2.0,4.0,90,0.00,,,0.03,weatherlink.com 1.10,2013-01-09 02:57:00,
2013-01-08 22:27:00,21.9,20.0,30.34,ENE,61,1.0,3.0,90,0.00,,,0.03,weatherlink.com 1.10,2013-01-09 03:27:00,
2013-01-08 22:42:00,21.8,20.0,30.34,NE,53,1.0,3.0,91,0.00,,,0.03,weatherlink.com 1.10,2013-01-09 03:42:00,
2013-01-08 22:57:00,21.8,20.0,30.34,ENE,59,0.0,3.0,91,0.00,,,0.03,weatherlink.com 1.10,2013-01-09 03:57:00,
2013-01-08 23:12:00,21.2,19.0,30.34,ENE,59,1.0,2.0,90,0.00,,,0.03,weatherlink.com 1.10,2013-01-09 04:12:00,
2013-01-08 23:27:00,20.6,19.0,30.34,ENE,61,3.0,3.0,92,0.00,,,0.03,weatherlink.com 1.10,2013-01-09 04:27:00,
2013-01-08 23:42:00,20.6,18.0,30.33,NE,55,1.0,2.0,91,0.00,,,0.03,weatherlink.com 1.10,2013-01-09 04:42:00,
2013-01-08 23:57:00,20.1,18.0,30.34,ENE,58,2.0,3.0,93,0.00,,,0.03,weatherlink.com 1.10,2013-01-09 04:57:00,